Terminal Aerodrome Forecast
Issued by NWS

Home | Current Version | Previous Version | Text Only | Print | Product List | Glossary On
Versions: 1 2 3 4 5 6 7 8 9 10 11 12
000
FTUS43 KGRB 010500
TAFMTW
TAF
KMTW 010520Z 0106/0206 21008KT P6SM BKN070
     FM010800 23005KT P6SM -SN BKN030 OVC050
     FM011500 24008G15KT P6SM SCT030 BKN150
     FM012300 24012KT P6SM BKN030
     FM020200 28009KT P6SM SCT030=

USA.gov is the U.S. government's official web portal to all federal, state and local government web resources and services.